sensor_id;sensor_type;location;lat;lon;timestamp;P1;durP1;ratioP1;P2;durP2;ratioP2
76171;SDS011;64929;51.178;4.138;2022-12-18T00:01:27;19.87;;;6.17;;
76171;SDS011;64929;51.178;4.138;2022-12-18T00:03:54;14.93;;;5.77;;
76171;SDS011;64929;51.178;4.138;2022-12-18T00:06:21;13.03;;;5.23;;
76171;SDS011;64929;51.178;4.138;2022-12-18T00:08:47;9.60;;;4.43;;
76171;SDS011;64929;51.178;4.138;2022-12-18T00:11:14;17.13;;;4.80;;
76171;SDS011;64929;51.178;4.138;2022-12-18T00:13:41;11.60;;;4.67;;
76171;SDS011;64929;51.178;4.138;2022-12-18T00:16:08;18.53;;;6.67;;
76171;SDS011;64929;51.178;4.138;2022-12-18T00:18:36;12.43;;;4.53;;
76171;SDS011;64929;51.178;4.138;2022-12-18T00:21:03;19.17;;;6.37;;
76171;SDS011;64929;51.178;4.138;2022-12-18T00:23:32;14.33;;;6.37;;
76171;SDS011;64929;51.178;4.138;2022-12-18T00:26:01;14.00;;;5.40;;
76171;SDS011;64929;51.178;4.138;2022-12-18T00:28:29;11.52;;;5.10;;
76171;SDS011;64929;51.178;4.138;2022-12-18T00:31:04;14.13;;;6.20;;
76171;SDS011;64929;51.178;4.138;2022-12-18T00:33:32;13.97;;;5.70;;
76171;SDS011;64929;51.178;4.138;2022-12-18T00:36:04;16.20;;;6.00;;
76171;SDS011;64929;51.178;4.138;2022-12-18T00:38:33;12.60;;;4.30;;
76171;SDS011;64929;51.178;4.138;2022-12-18T00:40:59;9.53;;;5.17;;
76171;SDS011;64929;51.178;4.138;2022-12-18T00:43:25;15.30;;;4.73;;
76171;SDS011;64929;51.178;4.138;2022-12-18T00:45:50;8.20;;;5.57;;
76171;SDS011;64929;51.178;4.138;2022-12-18T00:48:16;15.23;;;6.60;;
76171;SDS011;64929;51.178;4.138;2022-12-18T00:50:42;17.93;;;5.33;;
76171;SDS011;64929;51.178;4.138;2022-12-18T00:53:07;16.10;;;6.77;;
76171;SDS011;64929;51.178;4.138;2022-12-18T00:55:33;20.47;;;5.90;;
76171;SDS011;64929;51.178;4.138;2022-12-18T00:57:59;18.53;;;4.73;;
76171;SDS011;64929;51.178;4.138;2022-12-18T01:00:25;14.23;;;4.83;;
76171;SDS011;64929;51.178;4.138;2022-12-18T01:02:50;14.27;;;5.63;;
76171;SDS011;64929;51.178;4.138;2022-12-18T01:05:16;11.67;;;4.40;;
76171;SDS011;64929;51.178;4.138;2022-12-18T01:07:42;14.77;;;5.67;;
76171;SDS011;64929;51.178;4.138;2022-12-18T01:10:08;18.57;;;6.07;;
76171;SDS011;64929;51.178;4.138;2022-12-18T01:12:37;9.67;;;5.20;;
76171;SDS011;64929;51.178;4.138;2022-12-18T01:15:03;15.07;;;6.07;;
76171;SDS011;64929;51.178;4.138;2022-12-18T01:17:30;13.97;;;5.53;;
76171;SDS011;64929;51.178;4.138;2022-12-18T01:19:55;12.00;;;5.80;;
76171;SDS011;64929;51.178;4.138;2022-12-18T01:22:21;19.53;;;7.20;;
76171;SDS011;64929;51.178;4.138;2022-12-18T01:24:47;17.93;;;5.70;;
76171;SDS011;64929;51.178;4.138;2022-12-18T01:27:12;14.33;;;6.20;;
76171;SDS011;64929;51.178;4.138;2022-12-18T01:29:38;12.00;;;6.47;;
76171;SDS011;64929;51.178;4.138;2022-12-18T01:32:04;15.63;;;7.23;;
76171;SDS011;64929;51.178;4.138;2022-12-18T01:34:29;16.17;;;7.20;;
76171;SDS011;64929;51.178;4.138;2022-12-18T01:36:55;12.97;;;5.17;;
76171;SDS011;64929;51.178;4.138;2022-12-18T01:39:21;15.43;;;6.17;;
76171;SDS011;64929;51.178;4.138;2022-12-18T01:41:47;17.73;;;7.37;;
76171;SDS011;64929;51.178;4.138;2022-12-18T01:49:59;25.63;;;7.40;;
76171;SDS011;64929;51.178;4.138;2022-12-18T01:52:38;17.00;;;5.97;;
76171;SDS011;64929;51.178;4.138;2022-12-18T01:55:07;15.23;;;6.53;;
76171;SDS011;64929;51.178;4.138;2022-12-18T01:57:34;13.67;;;5.30;;
76171;SDS011;64929;51.178;4.138;2022-12-18T02:00:01;16.50;;;6.67;;
76171;SDS011;64929;51.178;4.138;2022-12-18T02:02:30;23.37;;;6.53;;
76171;SDS011;64929;51.178;4.138;2022-12-18T02:04:56;13.63;;;5.70;;
76171;SDS011;64929;51.178;4.138;2022-12-18T02:10:18;19.53;;;6.90;;
76171;SDS011;64929;51.178;4.138;2022-12-18T02:15:41;13.03;;;6.13;;
76171;SDS011;64929;51.178;4.138;2022-12-18T02:18:18;14.77;;;5.33;;
76171;SDS011;64929;51.178;4.138;2022-12-18T02:24:04;16.93;;;6.63;;
76171;SDS011;64929;51.178;4.138;2022-12-18T02:26:43;21.80;;;7.93;;
76171;SDS011;64929;51.178;4.138;2022-12-18T02:31:51;13.23;;;7.37;;
76171;SDS011;64929;51.178;4.138;2022-12-18T02:34:20;17.03;;;8.27;;
76171;SDS011;64929;51.178;4.138;2022-12-18T02:36:48;20.13;;;5.97;;
76171;SDS011;64929;51.178;4.138;2022-12-18T02:39:16;18.70;;;7.90;;
76171;SDS011;64929;51.178;4.138;2022-12-18T02:41:42;25.07;;;7.30;;
76171;SDS011;64929;51.178;4.138;2022-12-18T02:44:09;16.70;;;6.93;;
76171;SDS011;64929;51.178;4.138;2022-12-18T02:46:43;13.43;;;6.17;;
76171;SDS011;64929;51.178;4.138;2022-12-18T02:59:55;15.60;;;7.87;;
76171;SDS011;64929;51.178;4.138;2022-12-18T03:05:24;32.50;;;10.37;;
76171;SDS011;64929;51.178;4.138;2022-12-18T03:07:56;19.50;;;8.30;;
76171;SDS011;64929;51.178;4.138;2022-12-18T03:10:29;20.83;;;6.90;;
76171;SDS011;64929;51.178;4.138;2022-12-18T03:15:48;18.33;;;7.80;;
76171;SDS011;64929;51.178;4.138;2022-12-18T03:18:21;18.70;;;7.47;;
76171;SDS011;64929;51.178;4.138;2022-12-18T03:20:51;16.23;;;7.03;;
76171;SDS011;64929;51.178;4.138;2022-12-18T03:23:21;14.70;;;6.82;;
76171;SDS011;64929;51.178;4.138;2022-12-18T03:25:51;23.17;;;7.20;;
76171;SDS011;64929;51.178;4.138;2022-12-18T03:28:21;20.60;;;7.20;;
76171;SDS011;64929;51.178;4.138;2022-12-18T03:30:49;15.33;;;6.30;;
76171;SDS011;64929;51.178;4.138;2022-12-18T03:33:24;17.13;;;6.00;;
76171;SDS011;64929;51.178;4.138;2022-12-18T03:35:54;21.53;;;8.43;;
76171;SDS011;64929;51.178;4.138;2022-12-18T03:38:20;15.10;;;6.70;;
76171;SDS011;64929;51.178;4.138;2022-12-18T03:40:51;12.73;;;5.97;;
76171;SDS011;64929;51.178;4.138;2022-12-18T03:43:34;17.27;;;6.67;;
76171;SDS011;64929;51.178;4.138;2022-12-18T03:49:11;13.07;;;7.13;;
76171;SDS011;64929;51.178;4.138;2022-12-18T03:52:03;13.50;;;6.27;;
76171;SDS011;64929;51.178;4.138;2022-12-18T03:54:40;12.43;;;5.23;;
76171;SDS011;64929;51.178;4.138;2022-12-18T03:57:18;9.27;;;5.93;;
76171;SDS011;64929;51.178;4.138;2022-12-18T03:59:47;14.50;;;5.73;;
76171;SDS011;64929;51.178;4.138;2022-12-18T04:02:17;14.53;;;7.13;;
76171;SDS011;64929;51.178;4.138;2022-12-18T04:04:43;11.77;;;6.30;;
76171;SDS011;64929;51.178;4.138;2022-12-18T04:07:11;18.80;;;6.77;;
76171;SDS011;64929;51.178;4.138;2022-12-18T04:09:39;13.03;;;5.53;;
76171;SDS011;64929;51.178;4.138;2022-12-18T04:12:06;21.47;;;5.67;;
76171;SDS011;64929;51.178;4.138;2022-12-18T04:14:33;16.20;;;6.70;;
76171;SDS011;64929;51.178;4.138;2022-12-18T04:17:00;15.77;;;5.00;;
76171;SDS011;64929;51.178;4.138;2022-12-18T04:19:27;14.90;;;6.80;;
76171;SDS011;64929;51.178;4.138;2022-12-18T04:21:53;11.07;;;5.47;;
76171;SDS011;64929;51.178;4.138;2022-12-18T04:24:18;13.50;;;6.70;;
76171;SDS011;64929;51.178;4.138;2022-12-18T04:26:44;20.07;;;6.10;;
76171;SDS011;64929;51.178;4.138;2022-12-18T04:29:10;12.50;;;6.37;;
76171;SDS011;64929;51.178;4.138;2022-12-18T04:31:36;17.03;;;6.43;;
76171;SDS011;64929;51.178;4.138;2022-12-18T04:34:02;24.33;;;5.30;;
76171;SDS011;64929;51.178;4.138;2022-12-18T04:36:28;11.97;;;5.00;;
76171;SDS011;64929;51.178;4.138;2022-12-18T04:38:54;10.20;;;4.60;;
76171;SDS011;64929;51.178;4.138;2022-12-18T04:41:20;15.10;;;5.60;;
76171;SDS011;64929;51.178;4.138;2022-12-18T04:43:46;12.93;;;5.10;;
76171;SDS011;64929;51.178;4.138;2022-12-18T04:46:11;13.03;;;5.03;;
76171;SDS011;64929;51.178;4.138;2022-12-18T04:48:37;12.80;;;5.53;;
76171;SDS011;64929;51.178;4.138;2022-12-18T04:51:04;10.33;;;4.57;;
76171;SDS011;64929;51.178;4.138;2022-12-18T04:53:30;12.63;;;4.27;;
76171;SDS011;64929;51.178;4.138;2022-12-18T04:56:05;12.27;;;5.10;;
76171;SDS011;64929;51.178;4.138;2022-12-18T04:58:32;9.40;;;5.37;;
76171;SDS011;64929;51.178;4.138;2022-12-18T05:00:58;9.47;;;4.67;;
76171;SDS011;64929;51.178;4.138;2022-12-18T05:03:24;12.50;;;4.80;;
76171;SDS011;64929;51.178;4.138;2022-12-18T05:05:50;14.53;;;4.87;;
76171;SDS011;64929;51.178;4.138;2022-12-18T05:08:16;13.87;;;5.80;;
76171;SDS011;64929;51.178;4.138;2022-12-18T05:10:42;13.30;;;5.30;;
76171;SDS011;64929;51.178;4.138;2022-12-18T05:13:09;10.97;;;5.77;;
76171;SDS011;64929;51.178;4.138;2022-12-18T05:15:34;13.50;;;4.97;;
76171;SDS011;64929;51.178;4.138;2022-12-18T05:18:00;10.13;;;4.87;;
76171;SDS011;64929;51.178;4.138;2022-12-18T05:20:26;5.43;;;4.23;;
76171;SDS011;64929;51.178;4.138;2022-12-18T05:22:53;19.23;;;4.60;;
76171;SDS011;64929;51.178;4.138;2022-12-18T05:25:19;12.43;;;4.37;;
76171;SDS011;64929;51.178;4.138;2022-12-18T05:27:46;13.93;;;4.63;;
76171;SDS011;64929;51.178;4.138;2022-12-18T05:30:12;10.50;;;4.57;;
76171;SDS011;64929;51.178;4.138;2022-12-18T05:32:39;9.07;;;4.57;;
76171;SDS011;64929;51.178;4.138;2022-12-18T05:35:05;7.70;;;3.83;;
76171;SDS011;64929;51.178;4.138;2022-12-18T05:37:32;11.03;;;4.47;;
76171;SDS011;64929;51.178;4.138;2022-12-18T05:39:58;10.87;;;4.67;;
76171;SDS011;64929;51.178;4.138;2022-12-18T05:42:24;14.60;;;5.60;;
76171;SDS011;64929;51.178;4.138;2022-12-18T05:44:50;11.23;;;3.50;;
76171;SDS011;64929;51.178;4.138;2022-12-18T05:47:16;7.63;;;3.73;;
76171;SDS011;64929;51.178;4.138;2022-12-18T05:49:41;13.83;;;4.70;;
76171;SDS011;64929;51.178;4.138;2022-12-18T05:52:07;7.83;;;4.20;;
76171;SDS011;64929;51.178;4.138;2022-12-18T05:54:34;11.40;;;3.93;;
76171;SDS011;64929;51.178;4.138;2022-12-18T05:56:59;6.20;;;3.00;;
76171;SDS011;64929;51.178;4.138;2022-12-18T05:59:25;10.23;;;4.33;;
76171;SDS011;64929;51.178;4.138;2022-12-18T06:01:51;6.50;;;3.23;;
76171;SDS011;64929;51.178;4.138;2022-12-18T06:04:17;4.77;;;3.27;;
76171;SDS011;64929;51.178;4.138;2022-12-18T06:06:42;8.27;;;3.40;;
76171;SDS011;64929;51.178;4.138;2022-12-18T06:09:08;12.07;;;4.13;;
76171;SDS011;64929;51.178;4.138;2022-12-18T06:11:38;11.17;;;4.40;;
76171;SDS011;64929;51.178;4.138;2022-12-18T06:14:04;4.97;;;3.15;;
76171;SDS011;64929;51.178;4.138;2022-12-18T06:16:31;6.57;;;3.27;;
76171;SDS011;64929;51.178;4.138;2022-12-18T06:19:01;6.07;;;2.73;;
76171;SDS011;64929;51.178;4.138;2022-12-18T06:21:28;8.93;;;3.90;;
76171;SDS011;64929;51.178;4.138;2022-12-18T06:23:55;4.90;;;3.07;;
76171;SDS011;64929;51.178;4.138;2022-12-18T06:26:21;9.83;;;4.00;;
76171;SDS011;64929;51.178;4.138;2022-12-18T06:28:46;11.33;;;4.00;;
76171;SDS011;64929;51.178;4.138;2022-12-18T06:31:12;5.20;;;3.07;;
76171;SDS011;64929;51.178;4.138;2022-12-18T06:33:38;5.87;;;3.13;;
76171;SDS011;64929;51.178;4.138;2022-12-18T06:36:05;7.10;;;3.67;;
76171;SDS011;64929;51.178;4.138;2022-12-18T06:38:35;9.80;;;4.10;;
76171;SDS011;64929;51.178;4.138;2022-12-18T06:41:06;5.60;;;3.50;;
76171;SDS011;64929;51.178;4.138;2022-12-18T06:46:01;8.67;;;5.20;;
76171;SDS011;64929;51.178;4.138;2022-12-18T06:48:27;7.13;;;3.90;;
76171;SDS011;64929;51.178;4.138;2022-12-18T06:50:53;5.30;;;4.07;;
76171;SDS011;64929;51.178;4.138;2022-12-18T06:53:19;7.97;;;2.93;;
76171;SDS011;64929;51.178;4.138;2022-12-18T06:55:44;10.47;;;4.13;;
76171;SDS011;64929;51.178;4.138;2022-12-18T06:58:10;4.10;;;3.17;;
76171;SDS011;64929;51.178;4.138;2022-12-18T07:00:36;8.37;;;3.67;;
76171;SDS011;64929;51.178;4.138;2022-12-18T07:03:01;7.80;;;4.27;;
76171;SDS011;64929;51.178;4.138;2022-12-18T07:05:27;7.83;;;3.40;;
76171;SDS011;64929;51.178;4.138;2022-12-18T07:07:53;7.23;;;3.53;;
76171;SDS011;64929;51.178;4.138;2022-12-18T07:10:18;8.93;;;4.03;;
76171;SDS011;64929;51.178;4.138;2022-12-18T07:12:44;8.27;;;3.33;;
76171;SDS011;64929;51.178;4.138;2022-12-18T07:15:10;15.17;;;3.07;;
76171;SDS011;64929;51.178;4.138;2022-12-18T07:17:36;10.73;;;3.47;;
76171;SDS011;64929;51.178;4.138;2022-12-18T07:20:01;7.20;;;2.97;;
76171;SDS011;64929;51.178;4.138;2022-12-18T07:22:27;11.00;;;3.43;;
76171;SDS011;64929;51.178;4.138;2022-12-18T07:24:53;15.73;;;4.17;;
76171;SDS011;64929;51.178;4.138;2022-12-18T07:27:20;8.20;;;3.30;;
76171;SDS011;64929;51.178;4.138;2022-12-18T07:29:46;7.90;;;3.93;;
76171;SDS011;64929;51.178;4.138;2022-12-18T07:32:11;16.07;;;4.17;;
76171;SDS011;64929;51.178;4.138;2022-12-18T07:34:37;13.93;;;4.13;;
76171;SDS011;64929;51.178;4.138;2022-12-18T07:37:02;12.57;;;3.80;;
76171;SDS011;64929;51.178;4.138;2022-12-18T07:39:28;12.83;;;3.93;;
76171;SDS011;64929;51.178;4.138;2022-12-18T07:41:54;7.60;;;4.43;;
76171;SDS011;64929;51.178;4.138;2022-12-18T07:44:38;11.53;;;4.50;;
76171;SDS011;64929;51.178;4.138;2022-12-18T07:47:04;6.30;;;3.50;;
76171;SDS011;64929;51.178;4.138;2022-12-18T07:49:29;6.57;;;4.17;;
76171;SDS011;64929;51.178;4.138;2022-12-18T07:51:55;7.87;;;4.13;;
76171;SDS011;64929;51.178;4.138;2022-12-18T07:54:22;6.83;;;3.20;;
76171;SDS011;64929;51.178;4.138;2022-12-18T07:56:48;9.63;;;4.10;;
76171;SDS011;64929;51.178;4.138;2022-12-18T07:59:14;9.23;;;4.43;;
76171;SDS011;64929;51.178;4.138;2022-12-18T08:01:40;7.47;;;3.50;;
76171;SDS011;64929;51.178;4.138;2022-12-18T08:04:05;12.00;;;3.47;;
76171;SDS011;64929;51.178;4.138;2022-12-18T08:06:31;9.63;;;3.43;;
76171;SDS011;64929;51.178;4.138;2022-12-18T08:08:57;5.17;;;3.30;;
76171;SDS011;64929;51.178;4.138;2022-12-18T08:11:24;8.83;;;3.13;;
76171;SDS011;64929;51.178;4.138;2022-12-18T08:13:51;3.77;;;2.40;;
76171;SDS011;64929;51.178;4.138;2022-12-18T08:16:17;11.00;;;3.37;;
76171;SDS011;64929;51.178;4.138;2022-12-18T08:18:43;4.93;;;3.97;;
76171;SDS011;64929;51.178;4.138;2022-12-18T08:21:12;8.57;;;2.93;;
76171;SDS011;64929;51.178;4.138;2022-12-18T08:23:46;5.87;;;3.43;;
76171;SDS011;64929;51.178;4.138;2022-12-18T08:26:12;3.80;;;2.40;;
76171;SDS011;64929;51.178;4.138;2022-12-18T08:28:38;5.53;;;2.73;;
76171;SDS011;64929;51.178;4.138;2022-12-18T08:31:05;7.00;;;3.50;;
76171;SDS011;64929;51.178;4.138;2022-12-18T08:33:39;13.27;;;4.33;;
76171;SDS011;64929;51.178;4.138;2022-12-18T08:36:07;9.23;;;3.97;;
76171;SDS011;64929;51.178;4.138;2022-12-18T08:38:34;8.97;;;2.60;;
76171;SDS011;64929;51.178;4.138;2022-12-18T08:41:01;5.83;;;3.23;;
76171;SDS011;64929;51.178;4.138;2022-12-18T08:43:29;5.87;;;3.97;;
76171;SDS011;64929;51.178;4.138;2022-12-18T08:46:13;6.27;;;2.77;;
76171;SDS011;64929;51.178;4.138;2022-12-18T08:48:43;8.77;;;2.90;;
76171;SDS011;64929;51.178;4.138;2022-12-18T08:51:09;4.50;;;2.20;;
76171;SDS011;64929;51.178;4.138;2022-12-18T08:53:36;5.67;;;1.97;;
76171;SDS011;64929;51.178;4.138;2022-12-18T08:56:08;4.10;;;3.17;;
76171;SDS011;64929;51.178;4.138;2022-12-18T08:58:33;5.23;;;3.10;;
76171;SDS011;64929;51.178;4.138;2022-12-18T09:01:00;9.20;;;3.10;;
76171;SDS011;64929;51.178;4.138;2022-12-18T09:03:27;3.97;;;2.07;;
76171;SDS011;64929;51.178;4.138;2022-12-18T09:05:52;4.07;;;2.27;;
76171;SDS011;64929;51.178;4.138;2022-12-18T09:08:18;6.27;;;2.43;;
76171;SDS011;64929;51.178;4.138;2022-12-18T09:10:44;6.23;;;2.17;;
76171;SDS011;64929;51.178;4.138;2022-12-18T09:13:12;5.43;;;3.70;;
76171;SDS011;64929;51.178;4.138;2022-12-18T09:15:46;7.72;;;2.83;;
76171;SDS011;64929;51.178;4.138;2022-12-18T09:18:14;4.00;;;2.20;;
76171;SDS011;64929;51.178;4.138;2022-12-18T09:20:41;4.20;;;3.03;;
76171;SDS011;64929;51.178;4.138;2022-12-18T09:23:07;6.00;;;3.17;;
76171;SDS011;64929;51.178;4.138;2022-12-18T09:25:34;5.43;;;2.50;;
76171;SDS011;64929;51.178;4.138;2022-12-18T09:28:05;5.17;;;2.73;;
76171;SDS011;64929;51.178;4.138;2022-12-18T09:30:39;4.30;;;2.40;;
76171;SDS011;64929;51.178;4.138;2022-12-18T09:33:06;4.57;;;2.80;;
76171;SDS011;64929;51.178;4.138;2022-12-18T09:35:32;6.90;;;3.03;;
76171;SDS011;64929;51.178;4.138;2022-12-18T09:38:01;8.60;;;3.07;;
76171;SDS011;64929;51.178;4.138;2022-12-18T09:40:28;4.57;;;2.37;;
76171;SDS011;64929;51.178;4.138;2022-12-18T09:43:18;8.27;;;3.20;;
76171;SDS011;64929;51.178;4.138;2022-12-18T09:45:49;7.50;;;3.23;;
76171;SDS011;64929;51.178;4.138;2022-12-18T09:48:30;9.60;;;2.47;;
76171;SDS011;64929;51.178;4.138;2022-12-18T09:51:03;5.03;;;2.17;;
76171;SDS011;64929;51.178;4.138;2022-12-18T09:53:37;5.63;;;2.40;;
76171;SDS011;64929;51.178;4.138;2022-12-18T09:56:05;3.27;;;1.97;;
76171;SDS011;64929;51.178;4.138;2022-12-18T09:58:42;8.33;;;3.03;;
76171;SDS011;64929;51.178;4.138;2022-12-18T10:01:17;2.97;;;1.90;;
76171;SDS011;64929;51.178;4.138;2022-12-18T10:03:46;6.87;;;2.70;;
76171;SDS011;64929;51.178;4.138;2022-12-18T10:22:16;9.00;;;2.27;;
76171;SDS011;64929;51.178;4.138;2022-12-18T10:27:29;5.80;;;2.67;;
76171;SDS011;64929;51.178;4.138;2022-12-18T10:29:55;6.30;;;2.50;;
76171;SDS011;64929;51.178;4.138;2022-12-18T10:32:26;3.73;;;2.63;;
76171;SDS011;64929;51.178;4.138;2022-12-18T10:34:54;6.67;;;2.43;;
76171;SDS011;64929;51.178;4.138;2022-12-18T10:37:22;6.43;;;2.57;;
76171;SDS011;64929;51.178;4.138;2022-12-18T10:42:33;3.57;;;2.50;;
76171;SDS011;64929;51.178;4.138;2022-12-18T10:45:05;5.90;;;2.20;;
76171;SDS011;64929;51.178;4.138;2022-12-18T10:47:46;3.67;;;2.53;;
76171;SDS011;64929;51.178;4.138;2022-12-18T10:50:25;4.20;;;2.40;;
76171;SDS011;64929;51.178;4.138;2022-12-18T10:52:55;5.82;;;2.88;;
76171;SDS011;64929;51.178;4.138;2022-12-18T10:55:22;4.43;;;2.63;;
76171;SDS011;64929;51.178;4.138;2022-12-18T10:57:50;2.43;;;1.50;;
76171;SDS011;64929;51.178;4.138;2022-12-18T11:00:23;6.20;;;2.53;;
76171;SDS011;64929;51.178;4.138;2022-12-18T11:02:55;7.50;;;2.13;;
76171;SDS011;64929;51.178;4.138;2022-12-18T11:05:26;3.57;;;1.93;;
76171;SDS011;64929;51.178;4.138;2022-12-18T11:07:56;5.97;;;2.07;;
76171;SDS011;64929;51.178;4.138;2022-12-18T11:10:33;3.77;;;2.17;;
76171;SDS011;64929;51.178;4.138;2022-12-18T11:15:42;3.47;;;2.40;;
76171;SDS011;64929;51.178;4.138;2022-12-18T11:18:40;4.83;;;1.87;;
76171;SDS011;64929;51.178;4.138;2022-12-18T11:21:06;5.17;;;2.57;;
76171;SDS011;64929;51.178;4.138;2022-12-18T11:23:35;4.07;;;2.70;;
76171;SDS011;64929;51.178;4.138;2022-12-18T11:26:03;2.97;;;2.03;;
76171;SDS011;64929;51.178;4.138;2022-12-18T11:28:49;3.93;;;2.23;;
76171;SDS011;64929;51.178;4.138;2022-12-18T11:31:32;3.00;;;2.20;;
76171;SDS011;64929;51.178;4.138;2022-12-18T11:36:47;3.13;;;2.15;;
76171;SDS011;64929;51.178;4.138;2022-12-18T11:39:16;6.67;;;2.33;;
76171;SDS011;64929;51.178;4.138;2022-12-18T11:50:02;5.10;;;2.00;;
76171;SDS011;64929;51.178;4.138;2022-12-18T11:55:16;5.20;;;3.53;;
76171;SDS011;64929;51.178;4.138;2022-12-18T12:30:18;4.20;;;2.30;;
76171;SDS011;64929;51.178;4.138;2022-12-18T12:33:08;3.47;;;2.47;;
76171;SDS011;64929;51.178;4.138;2022-12-18T12:38:42;5.80;;;2.17;;
76171;SDS011;64929;51.178;4.138;2022-12-18T12:41:12;7.40;;;2.93;;
76171;SDS011;64929;51.178;4.138;2022-12-18T12:44:01;4.53;;;2.77;;
76171;SDS011;64929;51.178;4.138;2022-12-18T12:46:32;4.93;;;2.47;;
76171;SDS011;64929;51.178;4.138;2022-12-18T12:49:02;5.03;;;2.33;;
76171;SDS011;64929;51.178;4.138;2022-12-18T12:51:37;6.23;;;2.30;;
76171;SDS011;64929;51.178;4.138;2022-12-18T12:54:10;3.13;;;2.53;;
76171;SDS011;64929;51.178;4.138;2022-12-18T12:59:13;3.83;;;2.03;;
76171;SDS011;64929;51.178;4.138;2022-12-18T13:04:23;4.37;;;2.57;;
76171;SDS011;64929;51.178;4.138;2022-12-18T13:07:16;4.30;;;2.43;;
76171;SDS011;64929;51.178;4.138;2022-12-18T13:10:12;4.33;;;2.00;;
76171;SDS011;64929;51.178;4.138;2022-12-18T13:18:20;4.37;;;2.63;;
76171;SDS011;64929;51.178;4.138;2022-12-18T13:31:12;3.67;;;2.90;;
76171;SDS011;64929;51.178;4.138;2022-12-18T13:34:17;5.67;;;2.60;;
76171;SDS011;64929;51.178;4.138;2022-12-18T13:36:45;4.23;;;2.17;;
76171;SDS011;64929;51.178;4.138;2022-12-18T13:41:48;4.00;;;1.97;;
76171;SDS011;64929;51.178;4.138;2022-12-18T13:47:05;5.43;;;2.83;;
76171;SDS011;64929;51.178;4.138;2022-12-18T13:50:09;3.57;;;2.43;;
76171;SDS011;64929;51.178;4.138;2022-12-18T13:52:44;5.37;;;3.07;;
76171;SDS011;64929;51.178;4.138;2022-12-18T13:55:14;5.10;;;2.27;;
76171;SDS011;64929;51.178;4.138;2022-12-18T13:57:43;7.23;;;2.97;;
76171;SDS011;64929;51.178;4.138;2022-12-18T14:02:58;5.17;;;2.63;;
76171;SDS011;64929;51.178;4.138;2022-12-18T14:05:25;4.40;;;2.20;;
76171;SDS011;64929;51.178;4.138;2022-12-18T14:07:55;4.33;;;3.33;;
76171;SDS011;64929;51.178;4.138;2022-12-18T14:10:26;4.73;;;2.97;;
76171;SDS011;64929;51.178;4.138;2022-12-18T14:12:55;9.07;;;4.73;;
76171;SDS011;64929;51.178;4.138;2022-12-18T14:20:44;4.43;;;3.23;;
76171;SDS011;64929;51.178;4.138;2022-12-18T14:26:20;5.90;;;3.17;;
76171;SDS011;64929;51.178;4.138;2022-12-18T14:28:52;5.07;;;3.42;;
76171;SDS011;64929;51.178;4.138;2022-12-18T14:31:23;5.30;;;3.13;;
76171;SDS011;64929;51.178;4.138;2022-12-18T14:33:51;7.87;;;3.90;;
76171;SDS011;64929;51.178;4.138;2022-12-18T14:36:18;7.13;;;3.13;;
76171;SDS011;64929;51.178;4.138;2022-12-18T14:38:52;6.60;;;3.20;;
76171;SDS011;64929;51.178;4.138;2022-12-18T14:41:20;5.63;;;2.90;;
76171;SDS011;64929;51.178;4.138;2022-12-18T14:43:47;6.47;;;3.00;;
76171;SDS011;64929;51.178;4.138;2022-12-18T14:49:20;6.03;;;2.57;;
76171;SDS011;64929;51.178;4.138;2022-12-18T14:52:00;5.73;;;3.53;;
76171;SDS011;64929;51.178;4.138;2022-12-18T14:54:28;6.17;;;2.90;;
76171;SDS011;64929;51.178;4.138;2022-12-18T14:57:04;6.03;;;3.53;;
76171;SDS011;64929;51.178;4.138;2022-12-18T14:59:51;6.60;;;3.03;;
76171;SDS011;64929;51.178;4.138;2022-12-18T15:02:24;4.60;;;2.87;;
76171;SDS011;64929;51.178;4.138;2022-12-18T15:07:27;4.50;;;2.97;;
76171;SDS011;64929;51.178;4.138;2022-12-18T15:12:39;5.10;;;2.30;;
76171;SDS011;64929;51.178;4.138;2022-12-18T15:18:12;11.73;;;4.33;;
76171;SDS011;64929;51.178;4.138;2022-12-18T15:20:52;4.93;;;3.43;;
76171;SDS011;64929;51.178;4.138;2022-12-18T15:23:25;9.13;;;3.73;;
76171;SDS011;64929;51.178;4.138;2022-12-18T15:25:57;3.80;;;3.17;;
76171;SDS011;64929;51.178;4.138;2022-12-18T15:28:30;5.40;;;3.27;;
76171;SDS011;64929;51.178;4.138;2022-12-18T15:31:01;6.63;;;3.70;;
76171;SDS011;64929;51.178;4.138;2022-12-18T15:33:41;6.55;;;2.95;;
76171;SDS011;64929;51.178;4.138;2022-12-18T15:36:24;7.13;;;2.57;;
76171;SDS011;64929;51.178;4.138;2022-12-18T15:38:51;8.10;;;3.07;;
76171;SDS011;64929;51.178;4.138;2022-12-18T15:41:18;7.97;;;3.03;;
76171;SDS011;64929;51.178;4.138;2022-12-18T15:43:46;6.13;;;3.07;;
76171;SDS011;64929;51.178;4.138;2022-12-18T15:48:47;5.77;;;3.80;;
76171;SDS011;64929;51.178;4.138;2022-12-18T15:51:16;4.50;;;3.00;;
76171;SDS011;64929;51.178;4.138;2022-12-18T15:53:45;6.73;;;3.23;;
76171;SDS011;64929;51.178;4.138;2022-12-18T15:56:13;7.17;;;3.17;;
76171;SDS011;64929;51.178;4.138;2022-12-18T15:58:58;4.67;;;2.83;;
76171;SDS011;64929;51.178;4.138;2022-12-18T16:01:25;8.00;;;4.07;;
76171;SDS011;64929;51.178;4.138;2022-12-18T16:03:53;5.53;;;3.03;;
76171;SDS011;64929;51.178;4.138;2022-12-18T16:06:19;4.57;;;3.60;;
76171;SDS011;64929;51.178;4.138;2022-12-18T16:08:45;5.90;;;3.37;;
76171;SDS011;64929;51.178;4.138;2022-12-18T16:11:22;8.07;;;4.50;;
76171;SDS011;64929;51.178;4.138;2022-12-18T16:14:15;6.53;;;3.30;;
76171;SDS011;64929;51.178;4.138;2022-12-18T16:16:52;10.67;;;3.20;;
76171;SDS011;64929;51.178;4.138;2022-12-18T16:19:20;8.53;;;4.40;;
76171;SDS011;64929;51.178;4.138;2022-12-18T16:21:46;7.33;;;3.53;;
76171;SDS011;64929;51.178;4.138;2022-12-18T16:24:17;8.43;;;3.43;;
76171;SDS011;64929;51.178;4.138;2022-12-18T16:26:47;9.30;;;3.23;;
76171;SDS011;64929;51.178;4.138;2022-12-18T16:29:13;8.97;;;3.67;;
76171;SDS011;64929;51.178;4.138;2022-12-18T16:31:39;8.60;;;3.27;;
76171;SDS011;64929;51.178;4.138;2022-12-18T16:34:21;7.73;;;3.40;;
76171;SDS011;64929;51.178;4.138;2022-12-18T16:36:51;8.53;;;3.40;;
76171;SDS011;64929;51.178;4.138;2022-12-18T16:39:18;6.33;;;3.67;;
76171;SDS011;64929;51.178;4.138;2022-12-18T16:41:45;7.87;;;3.77;;
76171;SDS011;64929;51.178;4.138;2022-12-18T16:44:11;12.20;;;3.63;;
76171;SDS011;64929;51.178;4.138;2022-12-18T16:46:37;4.33;;;2.97;;
76171;SDS011;64929;51.178;4.138;2022-12-18T16:49:04;8.80;;;4.50;;
76171;SDS011;64929;51.178;4.138;2022-12-18T16:51:30;9.00;;;3.90;;
76171;SDS011;64929;51.178;4.138;2022-12-18T16:53:56;9.57;;;4.20;;
76171;SDS011;64929;51.178;4.138;2022-12-18T16:56:22;5.37;;;3.30;;
76171;SDS011;64929;51.178;4.138;2022-12-18T16:58:56;5.83;;;2.80;;
76171;SDS011;64929;51.178;4.138;2022-12-18T17:01:23;9.37;;;2.87;;
76171;SDS011;64929;51.178;4.138;2022-12-18T17:03:53;6.37;;;3.10;;
76171;SDS011;64929;51.178;4.138;2022-12-18T17:06:27;10.67;;;3.33;;
76171;SDS011;64929;51.178;4.138;2022-12-18T17:08:57;9.70;;;3.83;;
76171;SDS011;64929;51.178;4.138;2022-12-18T17:11:25;10.15;;;3.95;;
76171;SDS011;64929;51.178;4.138;2022-12-18T17:13:51;6.70;;;3.27;;
76171;SDS011;64929;51.178;4.138;2022-12-18T17:16:17;6.47;;;3.87;;
76171;SDS011;64929;51.178;4.138;2022-12-18T17:18:43;11.77;;;4.07;;
76171;SDS011;64929;51.178;4.138;2022-12-18T17:21:10;5.80;;;4.10;;
76171;SDS011;64929;51.178;4.138;2022-12-18T17:23:37;5.20;;;2.87;;
76171;SDS011;64929;51.178;4.138;2022-12-18T17:26:03;7.23;;;3.80;;
76171;SDS011;64929;51.178;4.138;2022-12-18T17:28:31;6.30;;;2.67;;
76171;SDS011;64929;51.178;4.138;2022-12-18T17:30:57;5.80;;;3.93;;
76171;SDS011;64929;51.178;4.138;2022-12-18T17:33:23;6.17;;;3.90;;
76171;SDS011;64929;51.178;4.138;2022-12-18T17:35:49;9.73;;;3.77;;
76171;SDS011;64929;51.178;4.138;2022-12-18T17:38:15;6.30;;;3.47;;
76171;SDS011;64929;51.178;4.138;2022-12-18T17:40:41;5.43;;;3.37;;